createdAt,value
2022-09-13T00:00:50.810Z,3.60
2022-09-13T00:03:55.421Z,3.43
2022-09-13T00:06:58.643Z,3.60
2022-09-13T00:10:02.152Z,4.37
2022-09-13T00:13:05.710Z,3.70
2022-09-13T00:16:12.986Z,3.23
2022-09-13T00:19:17.598Z,3.30
2022-09-13T00:22:21.134Z,3.43
2022-09-13T00:25:24.417Z,3.60
2022-09-13T00:28:27.705Z,2.80
2022-09-13T00:31:31.234Z,3.73
2022-09-13T00:34:35.990Z,3.80
2022-09-13T00:37:39.281Z,3.27
2022-09-13T00:40:42.663Z,3.63
2022-09-13T00:43:47.699Z,3.57
2022-09-13T00:46:51.331Z,3.97
2022-09-13T00:49:57.425Z,4.03
2022-09-13T00:53:03.104Z,3.30
2022-09-13T00:56:10.104Z,3.40
2022-09-13T00:59:15.557Z,3.60
2022-09-13T01:02:18.886Z,3.60
2022-09-13T01:05:32.171Z,3.70
2022-09-13T01:08:36.894Z,3.80
2022-09-13T01:11:42.640Z,4.20
2022-09-13T01:14:46.550Z,4.67
2022-09-13T01:17:49.942Z,4.27
2022-09-13T01:21:07.368Z,4.47
2022-09-13T01:24:20.112Z,4.50
2022-09-13T01:27:37.161Z,4.67
2022-09-13T01:30:44.784Z,4.63
2022-09-13T01:33:53.998Z,4.50
2022-09-13T01:37:07.756Z,5.03
2022-09-13T01:40:17.990Z,4.83
2022-09-13T01:43:27.021Z,4.93
2022-09-13T01:46:34.112Z,3.87
2022-09-13T01:49:42.762Z,5.30
2022-09-13T01:52:51.002Z,4.63
2022-09-13T01:55:59.759Z,4.20
2022-09-13T01:59:05.145Z,4.40
2022-09-13T02:02:12.606Z,3.77
2022-09-13T02:05:18.180Z,4.30
2022-09-13T02:08:23.577Z,4.87
2022-09-13T02:11:26.826Z,4.47
2022-09-13T02:14:32.801Z,4.00
2022-09-13T02:17:39.861Z,5.43
2022-09-13T02:20:45.267Z,4.17
2022-09-13T02:23:51.951Z,4.53
2022-09-13T02:26:56.267Z,3.70
2022-09-13T02:30:02.647Z,4.20
2022-09-13T02:33:08.996Z,4.20
2022-09-13T02:36:14.982Z,4.20
2022-09-13T02:39:19.520Z,3.57
2022-09-13T02:42:24.299Z,3.80
2022-09-13T02:45:30.231Z,3.60
2022-09-13T02:48:38.677Z,3.20
2022-09-13T02:51:47.071Z,3.03
2022-09-13T02:54:52.804Z,3.40
2022-09-13T02:58:01.734Z,3.17
2022-09-13T03:01:05.544Z,4.03
2022-09-13T03:04:10.413Z,2.67
2022-09-13T03:07:14.225Z,3.63
2022-09-13T03:10:18.210Z,3.00
2022-09-13T03:13:42.420Z,3.00
2022-09-13T03:16:51.658Z,2.97
2022-09-13T03:20:06.740Z,3.03
2022-09-13T03:23:22.731Z,3.60
2022-09-13T03:26:28.645Z,2.93
2022-09-13T03:29:34.033Z,2.70
2022-09-13T03:32:38.605Z,2.70
2022-09-13T03:35:44.811Z,2.97
2022-09-13T03:38:51.980Z,2.67
2022-09-13T03:41:57.790Z,2.77
2022-09-13T03:45:03.079Z,2.30
2022-09-13T03:48:07.506Z,2.47
2022-09-13T03:51:12.798Z,2.60
2022-09-13T03:54:18.299Z,2.80
2022-09-13T03:57:22.484Z,2.13
2022-09-13T04:00:25.868Z,2.33
2022-09-13T04:03:29.137Z,2.17
2022-09-13T04:06:33.716Z,2.50
2022-09-13T04:09:36.957Z,2.00
2022-09-13T04:12:41.335Z,2.17
2022-09-13T04:15:44.556Z,2.50
2022-09-13T04:18:47.792Z,2.30
2022-09-13T04:21:52.917Z,2.33
2022-09-13T04:25:00.212Z,2.07
2022-09-13T04:28:05.343Z,2.27
2022-09-13T04:31:08.608Z,2.27
2022-09-13T04:34:11.882Z,1.60
2022-09-13T04:37:16.537Z,2.03
2022-09-13T04:40:21.901Z,2.17
2022-09-13T04:43:25.729Z,1.70
2022-09-13T04:46:29.517Z,2.13
2022-09-13T04:49:33.852Z,2.03
2022-09-13T04:52:38.461Z,1.80
2022-09-13T04:55:41.836Z,2.00
2022-09-13T04:58:45.179Z,2.00
2022-09-13T05:01:48.420Z,2.67
2022-09-13T05:04:51.696Z,2.80
2022-09-13T05:07:56.496Z,2.30
2022-09-13T05:10:59.769Z,1.60
2022-09-13T05:14:03.063Z,2.00
2022-09-13T05:17:06.630Z,2.27
2022-09-13T05:20:10.407Z,2.07
2022-09-13T05:23:14.997Z,2.77
2022-09-13T05:26:18.267Z,2.93
2022-09-13T05:29:21.563Z,2.50
2022-09-13T05:32:24.798Z,2.47
2022-09-13T05:35:28.025Z,2.50
2022-09-13T05:38:32.909Z,2.53
2022-09-13T05:41:36.134Z,2.40
2022-09-13T05:44:39.394Z,1.80
2022-09-13T05:47:42.849Z,1.63
2022-09-13T05:50:57.941Z,1.70
2022-09-13T05:54:03.145Z,1.77
2022-09-13T05:57:06.507Z,1.73
2022-09-13T06:00:10.360Z,2.13
2022-09-13T06:03:13.596Z,1.73
2022-09-13T06:06:17.022Z,1.93
2022-09-13T06:09:21.623Z,1.63
2022-09-13T06:12:24.868Z,1.87
2022-09-13T06:15:28.125Z,2.10
2022-09-13T06:18:31.420Z,1.67
2022-09-13T06:21:34.831Z,1.73
2022-09-13T06:24:39.437Z,1.80
2022-09-13T06:27:42.923Z,1.37
2022-09-13T06:30:47.387Z,1.50
2022-09-13T06:33:50.639Z,1.80
2022-09-13T06:36:53.948Z,1.57
2022-09-13T06:39:58.753Z,1.73
2022-09-13T06:43:02.012Z,1.50
2022-09-13T06:46:06.444Z,1.40
2022-09-13T06:49:10.327Z,2.43
2022-09-13T06:52:13.791Z,1.50
2022-09-13T06:55:18.488Z,1.17
2022-09-13T06:58:21.706Z,1.30
2022-09-13T07:01:25.948Z,1.37
2022-09-13T07:04:31.588Z,1.10
2022-09-13T07:07:34.880Z,0.77
2022-09-13T07:10:39.696Z,1.00
2022-09-13T07:13:43.332Z,1.20
2022-09-13T07:16:46.917Z,0.70
2022-09-13T07:19:50.438Z,1.00
2022-09-13T07:22:53.681Z,1.00
2022-09-13T07:26:02.215Z,1.23
2022-09-13T07:29:06.871Z,0.70
2022-09-13T07:32:10.137Z,1.00
2022-09-13T07:35:13.397Z,0.80
2022-09-13T07:38:16.637Z,0.80
2022-09-13T07:41:22.596Z,0.80
2022-09-13T07:44:25.831Z,0.70
2022-09-13T07:47:29.078Z,0.60
2022-09-13T07:50:32.339Z,0.70
2022-09-13T07:53:36.215Z,0.90
2022-09-13T07:56:41.959Z,0.80
2022-09-13T07:59:45.350Z,0.67
2022-09-13T08:02:48.694Z,0.73
2022-09-13T08:05:52.006Z,0.57
2022-09-13T08:08:55.285Z,0.70
2022-09-13T08:11:59.910Z,0.60
2022-09-13T08:15:03.148Z,0.50
2022-09-13T08:18:07.768Z,0.87
2022-09-13T08:21:11.008Z,0.93
2022-09-13T08:24:15.840Z,0.60
2022-09-13T08:27:20.428Z,0.70
2022-09-13T08:30:23.667Z,0.57
2022-09-13T08:33:26.966Z,0.60
2022-09-13T08:36:31.067Z,0.88
2022-09-13T08:39:34.752Z,0.50
2022-09-13T08:42:48.104Z,0.95
2022-09-13T08:45:52.120Z,0.80
2022-09-13T08:48:56.967Z,0.70
2022-09-13T08:52:01.442Z,0.57
2022-09-13T08:55:08.433Z,0.75
2022-09-13T08:58:21.364Z,0.70
2022-09-13T09:01:31.381Z,0.77
2022-09-13T09:04:39.220Z,1.15
2022-09-13T09:07:43.557Z,0.68
2022-09-13T09:10:48.902Z,0.73
2022-09-13T09:13:54.666Z,0.70
2022-09-13T09:16:59.465Z,0.63
2022-09-13T09:20:05.130Z,0.85
2022-09-13T09:23:10.056Z,0.90
2022-09-13T09:26:16.799Z,0.80
2022-09-13T09:29:25.053Z,0.57
2022-09-13T09:32:40.155Z,0.65
2022-09-13T09:35:47.933Z,0.80
2022-09-13T09:38:51.236Z,0.75
2022-09-13T09:41:58.304Z,0.60
2022-09-13T09:45:04.937Z,0.52
2022-09-13T09:48:10.320Z,0.88
2022-09-13T09:51:15.312Z,0.50
2022-09-13T09:54:18.776Z,0.50
2022-09-13T09:57:23.297Z,0.80
2022-09-13T10:00:29.982Z,0.95
2022-09-13T10:03:34.485Z,0.50
2022-09-13T10:06:38.991Z,0.90
2022-09-13T10:09:56.091Z,0.80
2022-09-13T10:13:00.815Z,0.50
2022-09-13T10:16:06.547Z,0.50
2022-09-13T10:19:25.212Z,0.60
2022-09-13T10:22:28.842Z,0.40
2022-09-13T10:25:32.829Z,0.50
2022-09-13T10:28:38.098Z,0.70
2022-09-13T10:31:43.802Z,0.50
2022-09-13T10:34:48.701Z,0.52
2022-09-13T10:37:52.451Z,0.50
2022-09-13T10:40:56.352Z,0.80
2022-09-13T10:43:59.986Z,0.50
2022-09-13T10:47:06.085Z,0.60
2022-09-13T10:50:14.460Z,0.68
2022-09-13T10:53:32.140Z,0.77
2022-09-13T10:56:35.664Z,0.60
2022-09-13T10:59:38.929Z,0.55
2022-09-13T11:02:51.960Z,1.70
2022-09-13T11:06:00.044Z,0.57
2022-09-13T11:09:06.264Z,0.60
2022-09-13T11:12:16.162Z,0.60
2022-09-13T11:15:28.505Z,0.70
2022-09-13T11:18:47.243Z,0.50
2022-09-13T11:21:56.450Z,0.60
2022-09-13T11:25:05.230Z,0.65
2022-09-13T11:28:13.285Z,0.88
2022-09-13T11:31:27.069Z,0.55
2022-09-13T11:34:49.422Z,0.88
2022-09-13T11:38:00.630Z,0.73
2022-09-13T11:41:09.616Z,0.70
2022-09-13T11:44:30.109Z,0.68
2022-09-13T11:47:40.035Z,0.68
2022-09-13T11:50:46.835Z,0.45
2022-09-13T11:54:00.066Z,0.75
2022-09-13T11:57:05.498Z,0.55
2022-09-13T12:00:10.346Z,0.50
2022-09-13T12:03:17.112Z,0.50
2022-09-13T12:06:22.081Z,0.50
2022-09-13T12:09:29.471Z,0.47
2022-09-13T12:12:35.191Z,0.70
2022-09-13T12:15:39.275Z,0.50
2022-09-13T12:18:44.522Z,0.75
2022-09-13T12:21:49.422Z,0.68
2022-09-13T12:24:56.477Z,0.60
2022-09-13T12:28:05.590Z,0.60
2022-09-13T12:31:11.765Z,0.60
2022-09-13T12:34:19.109Z,0.60
2022-09-13T12:37:30.137Z,0.68
2022-09-13T12:40:55.333Z,0.50
2022-09-13T12:44:13.469Z,0.50
2022-09-13T12:47:41.821Z,0.60
2022-09-13T12:50:47.728Z,0.52
2022-09-13T12:54:05.625Z,0.57
2022-09-13T12:57:19.608Z,0.50
2022-09-13T13:00:24.008Z,0.65
2022-09-13T13:03:30.644Z,0.50
2022-09-13T13:06:35.669Z,0.63
2022-09-13T13:09:42.491Z,0.40
2022-09-13T13:12:47.241Z,0.40
2022-09-13T13:16:01.762Z,0.60
2022-09-13T13:19:05.858Z,0.60
2022-09-13T13:22:23.987Z,0.50
2022-09-13T13:25:37.742Z,0.70
2022-09-13T13:28:52.152Z,0.43
2022-09-13T13:32:14.645Z,0.40
2022-09-13T13:35:32.336Z,0.52
2022-09-13T13:38:53.710Z,0.40
2022-09-13T13:41:57.190Z,0.63
2022-09-13T13:45:16.867Z,0.45
2022-09-13T13:48:35.996Z,0.35
2022-09-13T13:51:39.257Z,0.40
2022-09-13T13:54:58.454Z,0.93
2022-09-13T13:58:03.170Z,0.50
2022-09-13T14:01:08.066Z,0.40
2022-09-13T14:04:26.373Z,0.40
2022-09-13T14:07:38.122Z,0.28
2022-09-13T14:10:45.662Z,0.32
2022-09-13T14:14:00.505Z,0.80
2022-09-13T14:17:19.898Z,0.40
2022-09-13T14:20:24.052Z,0.60
2022-09-13T14:23:28.084Z,0.30
2022-09-13T14:26:31.331Z,0.93
2022-09-13T14:29:34.649Z,0.60
2022-09-13T14:32:44.149Z,0.30
2022-09-13T14:35:47.617Z,0.82
2022-09-13T14:38:55.338Z,0.57
2022-09-13T14:42:02.559Z,0.60
2022-09-13T14:45:06.201Z,0.52
2022-09-13T14:48:14.553Z,0.40
2022-09-13T14:51:20.163Z,0.50
2022-09-13T14:54:38.542Z,0.50
2022-09-13T14:57:46.507Z,0.52
2022-09-13T15:00:51.598Z,0.40
2022-09-13T15:03:58.429Z,0.35
2022-09-13T15:07:09.454Z,0.40
2022-09-13T15:10:22.156Z,0.43
2022-09-13T15:13:25.797Z,0.47
2022-09-13T15:16:31.679Z,0.35
2022-09-13T15:19:40.633Z,0.40
2022-09-13T15:22:44.408Z,0.40
2022-09-13T15:25:52.249Z,0.45
2022-09-13T15:28:56.753Z,0.40
2022-09-13T15:32:00.978Z,0.30
2022-09-13T15:35:05.885Z,0.57
2022-09-13T15:38:20.443Z,0.50
2022-09-13T15:41:25.026Z,0.43
2022-09-13T15:44:29.751Z,0.45
2022-09-13T15:47:33.123Z,0.60
2022-09-13T15:50:38.664Z,0.70
2022-09-13T15:53:42.832Z,0.85
2022-09-13T15:56:47.357Z,0.82
2022-09-13T15:59:50.985Z,0.93
2022-09-13T16:02:54.640Z,0.80
2022-09-13T16:05:59.498Z,0.70
2022-09-13T16:09:02.759Z,0.80
2022-09-13T16:12:06.308Z,0.88
2022-09-13T16:15:10.351Z,1.10
2022-09-13T16:18:13.625Z,1.33
2022-09-13T16:21:18.225Z,1.23
2022-09-13T16:24:21.479Z,1.30
2022-09-13T16:27:27.951Z,1.50
2022-09-13T16:30:34.071Z,1.38
2022-09-13T16:33:37.329Z,1.65
2022-09-13T16:36:41.910Z,1.35
2022-09-13T16:39:45.382Z,1.70
2022-09-13T16:42:48.676Z,1.60
2022-09-13T16:45:51.923Z,1.55
2022-09-13T16:48:55.488Z,1.38
2022-09-13T16:52:00.384Z,1.40
2022-09-13T16:55:03.990Z,1.38
2022-09-13T16:58:07.260Z,1.50
2022-09-13T17:01:11.663Z,1.40
2022-09-13T17:04:14.944Z,1.60
2022-09-13T17:07:19.535Z,1.40
2022-09-13T17:10:24.131Z,1.50
2022-09-13T17:13:27.480Z,2.13
2022-09-13T17:16:31.863Z,1.85
2022-09-13T17:19:35.171Z,1.80
2022-09-13T17:22:39.759Z,1.80
2022-09-13T17:25:46.484Z,1.92
2022-09-13T17:28:49.770Z,2.15
2022-09-13T17:31:53.172Z,2.20
2022-09-13T17:34:56.488Z,2.38
2022-09-13T17:38:01.827Z,1.75
2022-09-13T17:41:06.036Z,2.17
2022-09-13T17:44:12.131Z,2.33
2022-09-13T17:47:15.403Z,2.42
2022-09-13T17:50:18.725Z,2.15
2022-09-13T17:53:23.370Z,2.17
2022-09-13T17:56:29.821Z,2.00
2022-09-13T17:59:34.140Z,2.35
2022-09-13T18:02:37.456Z,2.80
2022-09-13T18:05:40.857Z,2.95
2022-09-13T18:08:45.462Z,2.60
2022-09-13T18:11:48.757Z,2.38
2022-09-13T18:14:52.037Z,2.35
2022-09-13T18:17:55.333Z,2.33
2022-09-13T18:20:58.766Z,2.60
2022-09-13T18:24:03.698Z,2.60
2022-09-13T18:27:07.141Z,3.10
2022-09-13T18:30:10.826Z,3.72
2022-09-13T18:33:14.316Z,2.85
2022-09-13T18:36:20.287Z,3.72
2022-09-13T18:39:25.113Z,3.55
2022-09-13T18:42:31.470Z,4.13
2022-09-13T18:45:36.557Z,3.22
2022-09-13T18:48:40.657Z,3.80
2022-09-13T18:51:45.171Z,4.35
2022-09-13T18:54:49.779Z,3.88
2022-09-13T18:57:53.749Z,3.40
2022-09-13T19:01:03.854Z,3.30
2022-09-13T19:04:07.960Z,2.90
2022-09-13T19:07:11.168Z,2.55
2022-09-13T19:10:16.288Z,2.75
2022-09-13T19:13:19.581Z,2.72
2022-09-13T19:16:22.993Z,2.95
2022-09-13T19:19:26.665Z,2.78
2022-09-13T19:22:30.190Z,2.03
2022-09-13T19:25:36.060Z,2.55
2022-09-13T19:28:39.873Z,2.50
2022-09-13T19:31:43.929Z,2.22
2022-09-13T19:34:47.173Z,2.33
2022-09-13T19:37:50.495Z,2.53
2022-09-13T19:40:58.549Z,2.03
2022-09-13T19:44:02.453Z,2.15
2022-09-13T19:47:53.168Z,2.70
2022-09-13T19:50:30.621Z,2.50
2022-09-13T19:53:53.436Z,2.13
2022-09-13T19:57:00.236Z,2.10
2022-09-13T20:00:04.066Z,1.88
2022-09-13T20:03:07.445Z,1.92
2022-09-13T20:06:11.546Z,2.47
2022-09-13T20:09:15.635Z,1.83
2022-09-13T20:12:22.718Z,1.98
2022-09-13T20:15:26.597Z,2.72
2022-09-13T20:18:31.114Z,2.30
2022-09-13T20:21:34.655Z,2.40
2022-09-13T20:24:37.904Z,2.03
2022-09-13T20:27:42.827Z,2.17
2022-09-13T20:30:53.678Z,2.58
2022-09-13T20:33:57.372Z,2.05
2022-09-13T20:37:00.652Z,2.20
2022-09-13T20:40:04.142Z,1.85
2022-09-13T20:43:08.834Z,2.15
2022-09-13T20:46:14.113Z,2.40
2022-09-13T20:49:17.385Z,2.17
2022-09-13T20:52:20.693Z,2.22
2022-09-13T20:55:23.930Z,2.50
2022-09-13T20:58:28.657Z,2.60
2022-09-13T21:01:32.452Z,2.00
2022-09-13T21:04:35.930Z,2.35
2022-09-13T21:07:56.534Z,3.22
2022-09-13T21:11:02.685Z,2.85
2022-09-13T21:14:08.832Z,3.30
2022-09-13T21:17:12.150Z,3.38
2022-09-13T21:20:15.716Z,3.13
2022-09-13T21:23:18.995Z,3.17
2022-09-13T21:26:23.162Z,2.97
2022-09-13T21:29:27.971Z,2.97
2022-09-13T21:32:31.460Z,2.70
2022-09-13T21:35:39.545Z,2.85
2022-09-13T21:38:42.814Z,2.30
2022-09-13T21:41:46.760Z,3.30
2022-09-13T21:44:51.346Z,2.65
2022-09-13T21:47:54.806Z,1.70
2022-09-13T21:51:03.788Z,2.53
2022-09-13T21:54:08.019Z,2.47
2022-09-13T21:57:11.342Z,2.55
2022-09-13T22:00:18.103Z,2.05
2022-09-13T22:03:21.521Z,2.47
2022-09-13T22:06:24.884Z,2.20
2022-09-13T22:09:29.035Z,1.95
2022-09-13T22:12:32.275Z,2.78
2022-09-13T22:15:37.801Z,2.15
2022-09-13T22:18:41.670Z,2.20
2022-09-13T22:21:45.622Z,2.10
2022-09-13T22:24:48.908Z,2.20
2022-09-13T22:27:52.197Z,2.17
2022-09-13T22:30:56.854Z,2.47
2022-09-13T22:34:00.805Z,2.00
2022-09-13T22:37:04.151Z,1.80
2022-09-13T22:40:08.149Z,1.70
2022-09-13T22:43:11.521Z,1.80
2022-09-13T22:46:17.173Z,1.67
2022-09-13T22:49:21.386Z,1.73
2022-09-13T22:52:24.600Z,1.70
2022-09-13T22:55:27.855Z,1.88
2022-09-13T22:58:31.375Z,2.40
2022-09-13T23:01:36.416Z,1.92
2022-09-13T23:04:39.678Z,2.05
2022-09-13T23:07:43.120Z,1.95
2022-09-13T23:10:46.852Z,1.85
2022-09-13T23:13:50.995Z,1.98
2022-09-13T23:16:55.806Z,1.80
2022-09-13T23:19:59.060Z,2.13
2022-09-13T23:23:02.539Z,1.98
2022-09-13T23:26:06.735Z,1.88
2022-09-13T23:29:09.992Z,2.17
2022-09-13T23:32:14.671Z,1.98
2022-09-13T23:35:18.129Z,2.40
2022-09-13T23:38:21.450Z,1.90
2022-09-13T23:41:26.454Z,1.80
2022-09-13T23:44:29.891Z,2.72
2022-09-13T23:47:34.477Z,1.88
2022-09-13T23:50:37.714Z,2.00
2022-09-13T23:53:41.556Z,1.70
2022-09-13T23:56:44.966Z,2.38
2022-09-13T23:59:48.590Z,2.00
